Greenwood Lake, New York
Current Conditions -  °F | °C
As of 7:53 AM on Saturday 20 Dec 2014 (Local Time) from KFWN Reporting Station
Overcast Overcast  
Wind Chill: 24°   Ceiling: 2300
Heat Index: 29°   Visibility: 10mi
Dew Point: 20°   Wind: 5mph
Humidity: 69%   Direction: 10°N
Pressure: 30.25"   Gusts: NA
Location:  41.22°N, 74.29°W
Report Text: KFWN 201253Z AUTO 01004KT 10SM OVC023 M02/M07 A3025 RMK AO2 SLP247 T10171067
Loading
Personal Weather Stations






























Interactive Weather Map New forecast layout! Learn more

10-Day Weather Forecast

Advertisements
Track Severe Weather on mobile